Hauptseite
METAR-TAF:

METAR-TAF

Flughäfen :

Cape Dyer, Nunavut, Kanada

Breite: 66-35N, Länge: 061-37W, Höhe: 393 m

Beobachtung

Neuester Wetterbericht von vor 20 Minuten, um 22:00 UTC
Wind 11 kt aus Nord
Temperatur -23°C
Luftfeuchtigkeit 63%
Luftdruck 1015 hPa

METAR: CWFD 092200Z AUTO 36011KT ////SM //// NCD M23/M28 A2998

Zeit: 17:20 (22:20 UTC)


TAF: fehlend

Wetterbeobachtungen und Prognosen von mehr als 4000 Flughäfen (METAR und TAF Bericht).

Die verfügbaren Stationen werden durch gelbe und rote Markierungen auf der Karte dargestellt.

Führen Sie die Maus auf sie, um den Namen der Station zu sehen.

Darauf klicken, um die Beobachtung von Wetterbeobachtungen und Prognosen zu sehen.

Um die Karte zu ändern : klicken Sie auf den grünen Tasten mit einem schwarzen Kreuz Zum Vergrößern, auf den grünen Button mit einem Gedankenstrich zu verkleinern, oder auf die grünen Pfeile für benachbarte Karten.


METAR-TAF: